SVA105 OERK-EGLL
Flight info
| Callsign | SVA105 |
|---|---|
| Flight time | N/A |
| Altitude | 34000 |
| Route | IVONU Z710 GAS G662 NIMAR L550 NOVPA N697 MENLI/N0488F360 L677 CVO L617 TANSA UL613 KOR DCT DIMIS DCT VAKSU DCT MONFA DCT SOTOV/N0473F380 DCT XEBIX DCT USUDO DCT LIRSU DCT ARCKY DCT BUB L608 LOGAN |
| Aircraft | B77W/H-SDE1E2E3FGHIJ2J3J4J5M1RWXY/LB1D1 |
Departure
| Time | 2026-04-28 23:36 |
|---|---|
| Airport | King Khalid International Airport (OERK) |
Arrival
| Time | N/A |
|---|---|
| Airport | London Heathrow Airport (EGLL) |
| Time | Latitude | Longitude | Altitude | Speed | Heading |
|---|---|---|---|---|---|
| 2026-04-28 22:51 | 24.96219 | 46.70295 | 2057 ft | 0 kts | 194° |
| 2026-04-28 23:21 | 24.96231 | 46.70298 | 2056 ft | 2 kts | 194° |
| 2026-04-28 23:21 | 24.96246 | 46.70302 | 2056 ft | 2 kts | 194° |
| 2026-04-28 23:22 | 24.96260 | 46.70306 | 2056 ft | 2 kts | 194° |
| 2026-04-28 23:22 | 24.96270 | 46.70309 | 2056 ft | 2 kts | 195° |
| 2026-04-28 23:22 | 24.96289 | 46.70315 | 2056 ft | 2 kts | 194° |
| 2026-04-28 23:22 | 24.96304 | 46.70319 | 2056 ft | 2 kts | 194° |
| 2026-04-28 23:23 | 24.96318 | 46.70324 | 2056 ft | 2 kts | 211° |
| 2026-04-28 23:23 | 24.96330 | 46.70334 | 2056 ft | 2 kts | 229° |
| 2026-04-28 23:23 | 24.96338 | 46.70347 | 2056 ft | 2 kts | 234° |
| 2026-04-28 23:23 | 24.96349 | 46.70358 | 2056 ft | 2 kts | 208° |
| 2026-04-28 23:24 | 24.96363 | 46.70364 | 2056 ft | 2 kts | 191° |
| 2026-04-28 23:24 | 24.96377 | 46.70365 | 2056 ft | 2 kts | 174° |
| 2026-04-28 23:24 | 24.96392 | 46.70362 | 2056 ft | 2 kts | 156° |
| 2026-04-28 23:24 | 24.96404 | 46.70354 | 2056 ft | 2 kts | 146° |
| 2026-04-28 23:25 | 24.96407 | 46.70352 | 2056 ft | 0 kts | 146° |
| 2026-04-28 23:27 | 24.96405 | 46.70353 | 2056 ft | 1 kts | 146° |
| 2026-04-28 23:27 | 24.96392 | 46.70363 | 2056 ft | 3 kts | 146° |
| 2026-04-28 23:27 | 24.96375 | 46.70390 | 2056 ft | 5 kts | 101° |
| 2026-04-28 23:28 | 24.96389 | 46.70437 | 2056 ft | 8 kts | 62° |
| 2026-04-28 23:28 | 24.96419 | 46.70499 | 2056 ft | 10 kts | 60° |
| 2026-04-28 23:28 | 24.96454 | 46.70565 | 2056 ft | 9 kts | 60° |
| 2026-04-28 23:28 | 24.96461 | 46.70623 | 2056 ft | 7 kts | 122° |
| 2026-04-28 23:29 | 24.96416 | 46.70661 | 2056 ft | 9 kts | 149° |
| 2026-04-28 23:29 | 24.96349 | 46.70703 | 2056 ft | 12 kts | 150° |
| 2026-04-28 23:29 | 24.96268 | 46.70755 | 2056 ft | 14 kts | 150° |
| 2026-04-28 23:29 | 24.96172 | 46.70815 | 2056 ft | 16 kts | 150° |
| 2026-04-28 23:30 | 24.96066 | 46.70881 | 2056 ft | 18 kts | 150° |
| 2026-04-28 23:30 | 24.95952 | 46.70954 | 2056 ft | 19 kts | 150° |
| 2026-04-28 23:30 | 24.95828 | 46.71032 | 2056 ft | 21 kts | 150° |
| 2026-04-28 23:30 | 24.95697 | 46.71115 | 2056 ft | 22 kts | 150° |
| 2026-04-28 23:31 | 24.95560 | 46.71202 | 2056 ft | 22 kts | 150° |
| 2026-04-28 23:31 | 24.95422 | 46.71289 | 2056 ft | 22 kts | 150° |
| 2026-04-28 23:31 | 24.95287 | 46.71374 | 2056 ft | 22 kts | 150° |
| 2026-04-28 23:31 | 24.95150 | 46.71462 | 2056 ft | 22 kts | 150° |
| 2026-04-28 23:32 | 24.95012 | 46.71547 | 2056 ft | 22 kts | 150° |
| 2026-04-28 23:32 | 24.94876 | 46.71633 | 2056 ft | 22 kts | 150° |
| 2026-04-28 23:32 | 24.94739 | 46.71721 | 2056 ft | 22 kts | 150° |
| 2026-04-28 23:32 | 24.94604 | 46.71806 | 2056 ft | 21 kts | 150° |
| 2026-04-28 23:33 | 24.94484 | 46.71882 | 2056 ft | 18 kts | 150° |
| 2026-04-28 23:33 | 24.94379 | 46.71948 | 2056 ft | 16 kts | 150° |
| 2026-04-28 23:33 | 24.94312 | 46.71993 | 2056 ft | 7 kts | 135° |
| 2026-04-28 23:33 | 24.94301 | 46.72042 | 2056 ft | 6 kts | 81° |
| 2026-04-28 23:34 | 24.94319 | 46.72090 | 2056 ft | 8 kts | 62° |
| 2026-04-28 23:34 | 24.94350 | 46.72155 | 2056 ft | 10 kts | 62° |
| 2026-04-28 23:34 | 24.94387 | 46.72230 | 2056 ft | 7 kts | 61° |
| 2026-04-28 23:34 | 24.94423 | 46.72259 | 2056 ft | 5 kts | 359° |
| 2026-04-28 23:35 | 24.94461 | 46.72242 | 2056 ft | 6 kts | 331° |
| 2026-04-28 23:35 | 24.94582 | 46.72167 | 2056 ft | 48 kts | 330° |
| 2026-04-28 23:35 | 24.95081 | 46.71850 | 2056 ft | 115 kts | 330° |
| 2026-04-28 23:35 | 24.95959 | 46.71296 | 2056 ft | 173 kts | 329° |
| 2026-04-28 23:36 | 24.97111 | 46.70560 | 2369 ft | 197 kts | 330° |
| 2026-04-28 23:36 | 24.98320 | 46.69814 | 3011 ft | 203 kts | 341° |
| 2026-04-28 23:36 | 24.99667 | 46.69351 | 3676 ft | 213 kts | 347° |
| 2026-04-28 23:36 | 25.01136 | 46.68858 | 4068 ft | 228 kts | 345° |
| 2026-04-28 23:37 | 25.02690 | 46.68245 | 4366 ft | 249 kts | 342° |
| 2026-04-28 23:37 | 25.04404 | 46.67546 | 4721 ft | 269 kts | 342° |
| 2026-04-28 23:37 | 25.06177 | 46.66818 | 5359 ft | 275 kts | 339° |
| 2026-04-28 23:37 | 25.07767 | 46.65624 | 5929 ft | 287 kts | 313° |
| 2026-04-28 23:38 | 25.08760 | 46.63697 | 6533 ft | 293 kts | 284° |
| 2026-04-28 23:38 | 25.08887 | 46.61494 | 7219 ft | 292 kts | 259° |
| 2026-04-28 23:38 | 25.08483 | 46.59341 | 7971 ft | 291 kts | 255° |
| 2026-04-28 23:38 | 25.08044 | 46.57178 | 8709 ft | 291 kts | 256° |
| 2026-04-28 23:39 | 25.07686 | 46.54968 | 9371 ft | 295 kts | 262° |
| 2026-04-28 23:39 | 25.07592 | 46.52716 | 10055 ft | 298 kts | 266° |
| 2026-04-28 23:39 | 25.07556 | 46.50418 | 10578 ft | 308 kts | 266° |
| 2026-04-28 23:39 | 25.07515 | 46.48023 | 10973 ft | 322 kts | 266° |
| 2026-04-28 23:40 | 25.07467 | 46.45500 | 11409 ft | 336 kts | 265° |
| 2026-04-28 23:40 | 25.07413 | 46.42874 | 11831 ft | 350 kts | 266° |
| 2026-04-28 23:40 | 25.07356 | 46.40149 | 12267 ft | 364 kts | 266° |
| 2026-04-28 23:40 | 25.07297 | 46.37315 | 12744 ft | 376 kts | 266° |
| 2026-04-28 23:41 | 25.07237 | 46.34417 | 13411 ft | 383 kts | 265° |
| 2026-04-28 23:41 | 25.07175 | 46.31490 | 14295 ft | 383 kts | 265° |
| 2026-04-28 23:41 | 25.07112 | 46.28597 | 15335 ft | 380 kts | 265° |
| 2026-04-28 23:41 | 25.07049 | 46.25698 | 16364 ft | 377 kts | 265° |
| 2026-04-28 23:42 | 25.06985 | 46.22836 | 17321 ft | 375 kts | 265° |
| 2026-04-28 23:42 | 25.06921 | 46.19988 | 18185 ft | 376 kts | 265° |
| 2026-04-28 23:42 | 25.06855 | 46.17117 | 18957 ft | 378 kts | 265° |
| 2026-04-28 23:42 | 25.06788 | 46.14220 | 19717 ft | 381 kts | 265° |
| 2026-04-28 23:43 | 25.06721 | 46.11307 | 20460 ft | 384 kts | 265° |
| 2026-04-28 23:43 | 25.06652 | 46.08381 | 21180 ft | 387 kts | 265° |
| 2026-04-28 23:43 | 25.06582 | 46.05392 | 21893 ft | 390 kts | 265° |
| 2026-04-28 23:43 | 25.06510 | 46.02396 | 22569 ft | 393 kts | 265° |
| 2026-04-28 23:44 | 25.06440 | 45.99430 | 23182 ft | 395 kts | 265° |
| 2026-04-28 23:44 | 25.06365 | 45.96368 | 23796 ft | 398 kts | 265° |
| 2026-04-28 23:44 | 25.06292 | 45.93359 | 24336 ft | 400 kts | 265° |
| 2026-04-28 23:44 | 25.06217 | 45.90293 | 24900 ft | 402 kts | 265° |
| 2026-04-28 23:45 | 25.06140 | 45.87184 | 25406 ft | 405 kts | 266° |
| 2026-04-28 23:45 | 25.06063 | 45.84096 | 25891 ft | 408 kts | 266° |
| 2026-04-28 23:45 | 25.05985 | 45.80987 | 26362 ft | 411 kts | 266° |
| 2026-04-28 23:45 | 25.05904 | 45.77821 | 26865 ft | 413 kts | 266° |
| 2026-04-28 23:46 | 25.05824 | 45.74675 | 27339 ft | 415 kts | 266° |
| 2026-04-28 23:46 | 25.05784 | 45.71508 | 27804 ft | 418 kts | 269° |
| 2026-04-28 23:46 | 25.06086 | 45.68313 | 28227 ft | 423 kts | 277° |
| 2026-04-28 23:46 | 25.06809 | 45.65134 | 28660 ft | 430 kts | 284° |
| 2026-04-28 23:47 | 25.07937 | 45.62076 | 29122 ft | 437 kts | 290° |
| 2026-04-28 23:47 | 25.09278 | 45.59026 | 29635 ft | 439 kts | 290° |
| 2026-04-28 23:47 | 25.10613 | 45.56009 | 30162 ft | 440 kts | 290° |
| 2026-04-28 23:47 | 25.11940 | 45.53000 | 30762 ft | 439 kts | 290° |
| 2026-04-28 23:48 | 25.13254 | 45.50012 | 31455 ft | 434 kts | 290° |